Terminal Aerodrome Forecast
Issued by NWS Grand Forks, ND

Home | Current Version | Previous Version | Graphics & Text | Print | Product List | Glossary On
Versions: 1 2 3 4 5 6 7 8 9 10 11 12 13 14 15 16 17 18 19 20 21
857
FTUS43 KFGF 221726 AAB
TAFFAR
TAF AMD
KFAR 221726Z 2217/2318 VRB06KT P6SM BKN040
      TEMPO 2218/2220 BKN015
     FM222300 VRB06KT P6SM VCSH BKN040
     FM230300 32011KT P6SM BKN015
     FM230500 32012KT P6SM BKN008=

USA.gov is the U.S. government's official web portal to all federal, state and local government web resources and services.